createdAt,value
2022-11-30T00:00:40.634Z,48.16
2022-11-30T00:03:45.872Z,48.61
2022-11-30T00:06:51.876Z,47.91
2022-11-30T00:09:57.706Z,47.81
2022-11-30T00:13:03.304Z,47.53
2022-11-30T00:16:11.723Z,47.54
2022-11-30T00:19:17.028Z,47.33
2022-11-30T00:22:23.407Z,46.62
2022-11-30T00:25:28.272Z,46.67
2022-11-30T00:28:35.101Z,46.13
2022-11-30T00:31:41.825Z,46.15
2022-11-30T00:34:47.910Z,45.56
2022-11-30T00:37:54.758Z,46.02
2022-11-30T00:40:54.154Z,45.96
2022-11-30T00:43:40.726Z,45.62
2022-11-30T00:46:32.756Z,45.51
2022-11-30T00:49:25.619Z,45.78
2022-11-30T00:52:30.296Z,46.11
2022-11-30T00:55:38.183Z,45.73
2022-11-30T00:58:36.719Z,45.49
2022-11-30T01:01:42.798Z,46.02
2022-11-30T01:04:47.858Z,46.06
2022-11-30T01:07:54.652Z,45.79
2022-11-30T01:11:02.096Z,45.73
2022-11-30T01:14:09.705Z,46.22
2022-11-30T01:17:16.349Z,46.51
2022-11-30T01:20:22.922Z,46.09
2022-11-30T01:23:28.075Z,46.56
2022-11-30T01:26:34.081Z,45.92
2022-11-30T01:29:40.035Z,45.96
2022-11-30T01:32:45.853Z,45.90
2022-11-30T01:35:51.821Z,45.83
2022-11-30T01:39:02.746Z,45.18
2022-11-30T01:42:08.614Z,44.78
2022-11-30T01:45:14.284Z,44.65
2022-11-30T01:48:22.082Z,44.37
2022-11-30T01:51:27.698Z,44.41
2022-11-30T01:54:39.676Z,44.82
2022-11-30T01:58:02.872Z,44.38
2022-11-30T02:01:08.520Z,44.55
2022-11-30T02:04:45.493Z,43.91
2022-11-30T02:07:51.660Z,43.69
2022-11-30T02:11:02.210Z,43.05
2022-11-30T02:14:31.842Z,42.78
2022-11-30T02:17:56.860Z,42.70
2022-11-30T02:21:23.415Z,42.90
2022-11-30T02:24:39.974Z,42.51
2022-11-30T02:28:16.941Z,42.95
2022-11-30T02:31:25.409Z,43.32
2022-11-30T02:34:33.209Z,43.35
2022-11-30T02:37:37.981Z,43.34
2022-11-30T02:40:43.997Z,43.45
2022-11-30T02:43:48.870Z,51.99
2022-11-30T02:47:34.062Z,60.17
2022-11-30T02:50:33.150Z,63.41
2022-11-30T02:53:38.162Z,65.48
2022-11-30T02:56:43.826Z,65.88
2022-11-30T02:59:49.406Z,65.86
2022-11-30T03:02:55.434Z,63.76
2022-11-30T03:06:02.138Z,66.26
2022-11-30T03:09:08.402Z,66.79
2022-11-30T03:12:13.805Z,67.43
2022-11-30T03:15:20.324Z,64.00
2022-11-30T03:18:25.198Z,61.27
2022-11-30T03:21:31.125Z,59.78
2022-11-30T03:24:29.613Z,59.01
2022-11-30T03:27:35.904Z,58.68
2022-11-30T03:30:42.789Z,57.68
2022-11-30T03:33:48.524Z,57.91
2022-11-30T03:36:54.156Z,61.00
2022-11-30T03:40:00.008Z,61.67
2022-11-30T03:43:05.861Z,64.36
2022-11-30T03:46:11.604Z,65.47
2022-11-30T03:49:10.611Z,67.70
2022-11-30T03:51:55.940Z,67.95
2022-11-30T03:54:48.522Z,67.25
2022-11-30T03:57:40.927Z,62.17
2022-11-30T04:00:46.087Z,60.15
2022-11-30T04:03:52.445Z,59.03
2022-11-30T04:06:57.585Z,58.50
2022-11-30T04:10:08.277Z,58.70
2022-11-30T04:13:10.928Z,58.18
2022-11-30T04:16:16.735Z,57.64
2022-11-30T04:19:21.732Z,58.07
2022-11-30T04:22:26.719Z,66.18
2022-11-30T04:25:32.204Z,65.23
2022-11-30T04:28:38.605Z,67.75
2022-11-30T04:31:45.191Z,68.26
2022-11-30T04:34:51.801Z,68.83
2022-11-30T04:37:58.485Z,69.03
2022-11-30T04:41:04.794Z,68.86
2022-11-30T04:44:10.797Z,68.96
2022-11-30T04:47:15.884Z,69.07
2022-11-30T04:50:22.344Z,69.62
2022-11-30T04:53:28.537Z,69.44
2022-11-30T04:56:27.779Z,69.37
2022-11-30T04:59:35.378Z,69.17
2022-11-30T05:02:42.225Z,69.57
2022-11-30T05:05:47.248Z,68.37
2022-11-30T05:08:52.782Z,69.58
2022-11-30T05:11:58.358Z,69.39
2022-11-30T05:15:04.239Z,68.95
2022-11-30T05:18:16.052Z,68.93
2022-11-30T05:21:23.275Z,68.89
2022-11-30T05:24:29.010Z,68.76
2022-11-30T05:27:35.533Z,67.67
2022-11-30T05:30:42.173Z,68.32
2022-11-30T05:33:47.883Z,68.58
2022-11-30T05:36:53.031Z,68.57
2022-11-30T05:39:59.605Z,68.49
2022-11-30T05:43:10.283Z,68.73
2022-11-30T05:46:17.476Z,68.40
2022-11-30T05:49:23.461Z,68.27
2022-11-30T05:52:28.938Z,68.48
2022-11-30T05:55:34.282Z,68.62
2022-11-30T05:58:40.327Z,68.02
2022-11-30T06:01:46.404Z,67.44
2022-11-30T06:04:51.280Z,67.66
2022-11-30T06:07:56.940Z,67.48
2022-11-30T06:11:02.788Z,67.90
2022-11-30T06:14:09.717Z,67.38
2022-11-30T06:17:16.879Z,67.16
2022-11-30T06:20:24.768Z,65.87
2022-11-30T06:23:30.416Z,65.98
2022-11-30T06:26:35.927Z,65.81
2022-11-30T06:29:41.693Z,65.12
2022-11-30T06:32:47.374Z,65.96
2022-11-30T06:36:01.700Z,65.12
2022-11-30T06:39:07.189Z,63.75
2022-11-30T06:42:12.459Z,63.51
2022-11-30T06:45:18.293Z,63.29
2022-11-30T06:48:24.117Z,63.29
2022-11-30T06:51:28.857Z,63.71
2022-11-30T06:54:34.394Z,63.88
2022-11-30T06:57:46.942Z,62.87
2022-11-30T07:00:53.630Z,62.83
2022-11-30T07:03:59.243Z,61.71
2022-11-30T07:07:04.495Z,62.41
2022-11-30T07:10:12.952Z,62.01
2022-11-30T07:13:18.905Z,62.49
2022-11-30T07:16:24.906Z,61.53
2022-11-30T07:19:30.148Z,61.88
2022-11-30T07:22:35.591Z,61.53
2022-11-30T07:25:58.551Z,60.46
2022-11-30T07:29:08.352Z,60.30
2022-11-30T07:32:13.717Z,60.72
2022-11-30T07:35:19.457Z,59.69
2022-11-30T07:38:24.971Z,60.86
2022-11-30T07:41:30.690Z,59.89
2022-11-30T07:44:37.012Z,59.42
2022-11-30T07:47:41.766Z,60.51
2022-11-30T07:50:47.916Z,60.00
2022-11-30T07:53:54.531Z,58.98
2022-11-30T07:57:00.107Z,60.27
2022-11-30T08:00:05.703Z,60.89
2022-11-30T08:03:11.032Z,60.46
2022-11-30T08:06:19.888Z,58.68
2022-11-30T08:09:29.943Z,57.83
2022-11-30T08:12:35.894Z,58.16
2022-11-30T08:15:41.434Z,59.66
2022-11-30T08:18:48.369Z,58.39
2022-11-30T08:21:59.026Z,58.07
2022-11-30T08:25:08.573Z,58.79
2022-11-30T08:28:15.868Z,57.05
2022-11-30T08:31:25.284Z,56.31
2022-11-30T08:34:30.862Z,56.81
2022-11-30T08:37:38.405Z,55.98
2022-11-30T08:40:44.502Z,55.62
2022-11-30T08:43:50.022Z,55.03
2022-11-30T08:46:54.586Z,55.92
2022-11-30T08:50:00.004Z,55.34
2022-11-30T08:53:07.892Z,54.62
2022-11-30T08:56:18.000Z,54.15
2022-11-30T08:59:23.527Z,53.69
2022-11-30T09:02:30.370Z,54.34
2022-11-30T09:05:36.040Z,48.52
2022-11-30T09:08:41.680Z,46.84
2022-11-30T09:11:47.761Z,51.03
2022-11-30T09:14:58.048Z,52.09
2022-11-30T09:18:01.183Z,53.46
2022-11-30T09:21:07.872Z,53.49
2022-11-30T09:24:13.142Z,53.73
2022-11-30T09:27:17.682Z,53.11
2022-11-30T09:30:24.678Z,53.15
2022-11-30T09:33:31.137Z,53.76
2022-11-30T09:36:37.810Z,54.08
2022-11-30T09:39:43.439Z,55.20
2022-11-30T09:43:37.728Z,51.33
2022-11-30T09:46:59.392Z,48.29
2022-11-30T09:50:04.315Z,46.39
2022-11-30T09:53:18.065Z,44.68
2022-11-30T09:56:38.491Z,45.32
2022-11-30T09:59:46.135Z,45.32
2022-11-30T10:02:53.287Z,45.09
2022-11-30T10:10:30.871Z,44.95
2022-11-30T10:13:05.701Z,44.63
2022-11-30T10:16:34.374Z,44.29
2022-11-30T10:20:03.192Z,44.72
2022-11-30T10:23:28.341Z,44.63
2022-11-30T10:26:46.822Z,44.13
2022-11-30T10:29:55.254Z,44.24
2022-11-30T10:33:04.002Z,45.27
2022-11-30T10:36:12.436Z,44.98
2022-11-30T10:39:22.708Z,44.67
2022-11-30T10:42:43.843Z,44.93
2022-11-30T10:45:50.527Z,43.66
2022-11-30T10:48:51.469Z,42.28
2022-11-30T10:51:43.840Z,41.26
2022-11-30T10:54:49.460Z,42.68
2022-11-30T10:57:55.715Z,42.51
2022-11-30T11:01:15.592Z,42.53
2022-11-30T11:04:36.993Z,42.07
2022-11-30T11:07:42.160Z,41.98
2022-11-30T11:10:57.785Z,43.23
2022-11-30T11:14:02.922Z,43.09
2022-11-30T11:17:21.576Z,42.69
2022-11-30T11:20:55.799Z,42.78
2022-11-30T11:24:03.200Z,43.37
2022-11-30T11:27:10.224Z,42.39
2022-11-30T11:30:44.750Z,42.33
2022-11-30T11:33:49.734Z,42.81
2022-11-30T11:36:56.062Z,42.20
2022-11-30T11:40:18.683Z,42.49
2022-11-30T11:43:30.094Z,42.12
2022-11-30T11:46:36.734Z,41.65
2022-11-30T11:49:54.664Z,41.61
2022-11-30T11:53:00.859Z,41.61
2022-11-30T11:56:19.644Z,42.01
2022-11-30T12:00:18.397Z,42.02
2022-11-30T12:03:56.961Z,41.76
2022-11-30T12:07:02.445Z,41.75
2022-11-30T12:10:52.998Z,41.75
2022-11-30T12:13:57.272Z,41.76
2022-11-30T12:17:19.314Z,39.75
2022-11-30T12:20:32.945Z,39.39
2022-11-30T12:23:50.300Z,39.18
2022-11-30T12:27:16.593Z,38.83
2022-11-30T12:31:00.466Z,38.52
2022-11-30T12:34:17.464Z,39.42
2022-11-30T12:37:58.996Z,39.14
2022-11-30T12:41:44.776Z,39.57
2022-11-30T12:45:13.304Z,39.12
2022-11-30T12:48:47.110Z,39.03
2022-11-30T12:52:05.652Z,39.24
2022-11-30T12:55:40.204Z,38.81
2022-11-30T12:59:03.789Z,39.21
2022-11-30T13:02:42.000Z,39.64
2022-11-30T13:06:04.336Z,39.74
2022-11-30T13:09:50.728Z,39.89
2022-11-30T13:13:00.466Z,40.28
2022-11-30T13:16:05.785Z,40.84
2022-11-30T13:19:15.722Z,41.09
2022-11-30T13:22:25.171Z,41.41
2022-11-30T13:28:58.816Z,40.62
2022-11-30T13:32:56.773Z,40.41
2022-11-30T13:35:55.042Z,40.52
2022-11-30T13:39:01.114Z,40.46
2022-11-30T13:42:31.405Z,40.32
2022-11-30T13:45:47.189Z,40.38
2022-11-30T13:48:55.656Z,40.42
2022-11-30T13:52:22.061Z,40.13
2022-11-30T13:55:09.494Z,41.30
2022-11-30T13:58:19.852Z,41.29
2022-11-30T14:01:42.636Z,41.31
2022-11-30T14:04:49.437Z,41.64
2022-11-30T14:07:58.069Z,42.31
2022-11-30T14:11:04.898Z,42.42
2022-11-30T14:14:10.010Z,42.34
2022-11-30T14:17:15.612Z,42.85
2022-11-30T14:20:37.608Z,43.20
2022-11-30T14:23:51.163Z,42.77
2022-11-30T14:26:54.569Z,42.99
2022-11-30T14:29:49.592Z,42.64
2022-11-30T14:33:02.722Z,43.06
2022-11-30T14:36:10.584Z,43.71
2022-11-30T14:39:16.552Z,41.86
2022-11-30T14:42:39.071Z,41.42
2022-11-30T14:45:46.616Z,41.38
2022-11-30T14:48:53.628Z,41.40
2022-11-30T14:52:03.081Z,40.97
2022-11-30T14:55:44.341Z,41.24
2022-11-30T14:59:16.466Z,41.29
2022-11-30T15:02:24.483Z,41.05
2022-11-30T15:05:37.560Z,40.67
2022-11-30T15:08:50.002Z,40.89
2022-11-30T15:12:02.603Z,40.84
2022-11-30T15:15:41.889Z,39.95
2022-11-30T15:18:47.610Z,40.37
2022-11-30T15:21:55.179Z,40.43
2022-11-30T15:25:00.831Z,40.37
2022-11-30T15:28:06.597Z,40.06
2022-11-30T15:31:13.351Z,40.51
2022-11-30T15:34:19.992Z,41.09
2022-11-30T15:37:26.630Z,40.93
2022-11-30T15:40:53.181Z,40.85
2022-11-30T15:43:56.194Z,40.88
2022-11-30T15:47:14.684Z,41.17
2022-11-30T15:50:46.471Z,40.00
2022-11-30T15:54:05.762Z,40.17
2022-11-30T15:57:12.502Z,40.74
2022-11-30T16:00:36.220Z,40.72
2022-11-30T16:03:41.779Z,41.09
2022-11-30T19:25:19.281Z,41.08
2022-11-30T19:28:24.898Z,39.21
2022-11-30T19:31:32.950Z,36.70
2022-11-30T19:34:39.412Z,35.46
2022-11-30T19:37:45.463Z,35.83
2022-11-30T19:40:53.142Z,35.00
2022-11-30T19:44:03.790Z,34.22
2022-11-30T19:47:09.061Z,32.28
2022-11-30T19:50:14.675Z,32.29
2022-11-30T19:53:19.799Z,35.50
2022-11-30T19:56:32.795Z,48.68
2022-11-30T19:59:39.664Z,52.10
2022-11-30T20:02:45.811Z,53.44
2022-11-30T20:05:51.655Z,54.95
2022-11-30T20:08:56.652Z,55.88
2022-11-30T20:12:02.867Z,56.44
2022-11-30T20:15:01.715Z,56.35
2022-11-30T20:18:07.758Z,56.14
2022-11-30T20:21:13.197Z,56.33
2022-11-30T20:24:22.527Z,56.66
2022-11-30T20:27:29.922Z,57.42
2022-11-30T20:30:36.679Z,57.73
2022-11-30T20:33:42.624Z,58.16
2022-11-30T20:36:50.287Z,57.92
2022-11-30T20:39:57.351Z,52.24
2022-11-30T20:43:05.194Z,49.48
2022-11-30T20:46:10.777Z,48.32
2022-11-30T20:49:17.346Z,47.45
2022-11-30T20:52:22.063Z,46.55
2022-11-30T20:55:27.517Z,45.89
2022-11-30T20:58:32.910Z,49.98
2022-11-30T21:01:39.355Z,53.80
2022-11-30T21:04:45.916Z,53.15
2022-11-30T21:07:51.689Z,49.40
2022-11-30T21:10:57.619Z,49.44
2022-11-30T21:14:03.784Z,48.93
2022-11-30T21:17:09.735Z,47.35
2022-11-30T21:20:15.545Z,46.80
2022-11-30T21:23:24.996Z,46.47
2022-11-30T21:26:39.084Z,45.40
2022-11-30T21:29:44.897Z,44.78
2022-11-30T21:32:50.940Z,43.60
2022-11-30T21:35:49.655Z,44.03
2022-11-30T21:38:42.363Z,44.05
2022-11-30T21:41:47.322Z,46.40
2022-11-30T21:44:52.874Z,45.53
2022-11-30T21:47:58.616Z,45.73
2022-11-30T21:51:03.692Z,45.25
2022-11-30T21:54:16.436Z,45.64
2022-11-30T21:57:23.113Z,45.20
2022-11-30T22:00:29.790Z,44.72
2022-11-30T22:03:35.692Z,44.77
2022-11-30T22:06:43.612Z,44.81
2022-11-30T22:09:51.348Z,44.59
2022-11-30T22:12:57.834Z,44.37
2022-11-30T22:16:03.569Z,43.99
2022-11-30T22:19:09.972Z,44.02
2022-11-30T22:22:15.572Z,44.01
2022-11-30T22:25:21.677Z,43.83
2022-11-30T22:28:26.947Z,43.90
2022-11-30T22:31:34.175Z,44.67
2022-11-30T22:34:39.622Z,45.02
2022-11-30T22:37:44.323Z,44.97
2022-11-30T22:40:49.939Z,44.42
2022-11-30T22:43:57.334Z,43.56
2022-11-30T22:47:04.147Z,43.56
2022-11-30T22:50:09.564Z,43.23
2022-11-30T22:53:15.590Z,43.70
2022-11-30T22:56:24.379Z,43.90
2022-11-30T22:59:30.828Z,43.97
2022-11-30T23:02:36.356Z,43.18
2022-11-30T23:05:42.090Z,43.58
2022-11-30T23:08:48.325Z,43.50
2022-11-30T23:11:53.948Z,43.14
2022-11-30T23:15:00.760Z,43.04
2022-11-30T23:18:06.673Z,42.92
2022-11-30T23:21:11.695Z,42.45
2022-11-30T23:24:18.294Z,42.23
2022-11-30T23:27:24.127Z,42.33
2022-11-30T23:30:30.310Z,41.79
2022-11-30T23:33:37.979Z,42.27
2022-11-30T23:36:43.922Z,42.58
2022-11-30T23:39:49.165Z,42.19
2022-11-30T23:42:55.702Z,42.14
2022-11-30T23:46:01.257Z,41.96
2022-11-30T23:49:07.876Z,42.34
2022-11-30T23:52:13.113Z,41.62
2022-11-30T23:55:20.352Z,41.40
2022-11-30T23:58:26.173Z,41.84
